East Yaphank, New York
Current Conditions -  °F | °C
As of 2:56 AM on Thursday 18 Dec 2014 (Local Time) from KHWV Reporting Station
Overcast Overcast  
Wind Chill: 33°   Ceiling: 6000
Heat Index: 41°   Visibility: 10mi
Dew Point: 28°   Wind: 14mph
Humidity: 60%   Direction: 300°WNW
Pressure: 29.86"   Gusts: NA
Location:  40.7965°N, 72.8753°W
Report Text: KHWV 180756Z AUTO 30012KT 10SM FEW042 OVC060 05/M02 A2986 RMK AO2 SLP113 T00501022 TSNO
Loading
Personal Weather Stations






























Interactive Weather Map New forecast layout! Learn more

10-Day Weather Forecast

Advertisements
Track Severe Weather on mobile